sensor_id;sensor_type;location;lat;lon;timestamp;P1;durP1;ratioP1;P2;durP2;ratioP2
32788;SDS011;19141;48.980;8.410;2023-08-06T04:22:32;3.97;;;1.90;;
32788;SDS011;19141;48.980;8.410;2023-08-06T04:24:58;3.65;;;1.50;;
32788;SDS011;19141;48.980;8.410;2023-08-06T04:27:23;3.58;;;1.70;;
32788;SDS011;19141;48.980;8.410;2023-08-06T04:29:49;5.05;;;1.50;;
32788;SDS011;19141;48.980;8.410;2023-08-06T04:32:14;4.32;;;1.40;;
32788;SDS011;19141;48.980;8.410;2023-08-06T04:34:46;2.80;;;1.27;;
32788;SDS011;19141;48.980;8.410;2023-08-06T04:37:12;3.45;;;1.20;;
32788;SDS011;19141;48.980;8.410;2023-08-06T04:39:37;1.73;;;0.88;;
32788;SDS011;19141;48.980;8.410;2023-08-06T04:42:03;6.93;;;1.40;;
32788;SDS011;19141;48.980;8.410;2023-08-06T04:44:28;3.35;;;1.75;;
32788;SDS011;19141;48.980;8.410;2023-08-06T04:46:54;4.55;;;1.20;;
32788;SDS011;19141;48.980;8.410;2023-08-06T04:49:22;2.10;;;1.20;;
32788;SDS011;19141;48.980;8.410;2023-08-06T04:51:48;4.05;;;2.03;;
32788;SDS011;19141;48.980;8.410;2023-08-06T04:54:13;1.63;;;1.17;;
32788;SDS011;19141;48.980;8.410;2023-08-06T04:56:39;4.43;;;1.50;;
32788;SDS011;19141;48.980;8.410;2023-08-06T04:59:04;3.88;;;1.75;;
32788;SDS011;19141;48.980;8.410;2023-08-06T05:01:30;3.83;;;1.77;;
32788;SDS011;19141;48.980;8.410;2023-08-06T05:03:56;5.40;;;2.17;;
32788;SDS011;19141;48.980;8.410;2023-08-06T05:06:21;4.13;;;1.85;;
32788;SDS011;19141;48.980;8.410;2023-08-06T05:08:47;4.18;;;1.95;;
32788;SDS011;19141;48.980;8.410;2023-08-06T05:11:12;3.63;;;1.63;;
32788;SDS011;19141;48.980;8.410;2023-08-06T05:13:37;7.95;;;1.65;;
32788;SDS011;19141;48.980;8.410;2023-08-06T05:16:03;4.38;;;1.90;;
32788;SDS011;19141;48.980;8.410;2023-08-06T05:18:28;5.75;;;1.83;;
32788;SDS011;19141;48.980;8.410;2023-08-06T05:20:55;7.70;;;1.97;;
32788;SDS011;19141;48.980;8.410;2023-08-06T05:23:21;5.10;;;1.75;;
32788;SDS011;19141;48.980;8.410;2023-08-06T05:25:46;3.47;;;1.73;;
32788;SDS011;19141;48.980;8.410;2023-08-06T05:28:11;7.05;;;1.58;;
32788;SDS011;19141;48.980;8.410;2023-08-06T05:30:40;2.40;;;1.38;;
32788;SDS011;19141;48.980;8.410;2023-08-06T05:33:06;5.20;;;1.63;;
32788;SDS011;19141;48.980;8.410;2023-08-06T05:35:32;3.47;;;1.95;;
32788;SDS011;19141;48.980;8.410;2023-08-06T05:37:57;4.95;;;1.90;;
32788;SDS011;19141;48.980;8.410;2023-08-06T05:40:22;3.42;;;1.58;;
32788;SDS011;19141;48.980;8.410;2023-08-06T05:42:49;5.32;;;1.70;;
32788;SDS011;19141;48.980;8.410;2023-08-06T05:45:15;3.05;;;1.70;;
32788;SDS011;19141;48.980;8.410;2023-08-06T05:47:41;7.07;;;1.70;;
32788;SDS011;19141;48.980;8.410;2023-08-06T05:50:06;4.80;;;1.90;;
32788;SDS011;19141;48.980;8.410;2023-08-06T05:52:41;6.00;;;1.60;;
32788;SDS011;19141;48.980;8.410;2023-08-06T05:55:06;2.67;;;1.52;;
32788;SDS011;19141;48.980;8.410;2023-08-06T05:57:32;4.32;;;1.45;;
32788;SDS011;19141;48.980;8.410;2023-08-06T05:59:57;1.90;;;1.40;;
32788;SDS011;19141;48.980;8.410;2023-08-06T06:02:23;2.85;;;1.30;;
32788;SDS011;19141;48.980;8.410;2023-08-06T06:04:48;5.00;;;1.40;;
32788;SDS011;19141;48.980;8.410;2023-08-06T06:07:13;4.90;;;1.63;;
32788;SDS011;19141;48.980;8.410;2023-08-06T06:09:39;3.58;;;1.50;;
32788;SDS011;19141;48.980;8.410;2023-08-06T06:12:05;6.40;;;1.98;;
32788;SDS011;19141;48.980;8.410;2023-08-06T06:14:31;2.88;;;1.70;;
32788;SDS011;19141;48.980;8.410;2023-08-06T06:16:57;2.83;;;1.02;;
32788;SDS011;19141;48.980;8.410;2023-08-06T06:19:22;4.63;;;1.00;;
32788;SDS011;19141;48.980;8.410;2023-08-06T06:21:48;1.35;;;0.73;;
32788;SDS011;19141;48.980;8.410;2023-08-06T06:24:13;3.30;;;0.60;;
32788;SDS011;19141;48.980;8.410;2023-08-06T06:26:38;3.90;;;1.23;;
32788;SDS011;19141;48.980;8.410;2023-08-06T06:29:04;3.60;;;1.00;;
32788;SDS011;19141;48.980;8.410;2023-08-06T06:31:29;0.82;;;0.60;;
32788;SDS011;19141;48.980;8.410;2023-08-06T06:33:55;2.75;;;1.10;;
32788;SDS011;19141;48.980;8.410;2023-08-06T06:36:20;1.85;;;0.60;;
32788;SDS011;19141;48.980;8.410;2023-08-06T06:38:46;4.95;;;1.05;;
32788;SDS011;19141;48.980;8.410;2023-08-06T06:41:11;1.35;;;0.85;;
32788;SDS011;19141;48.980;8.410;2023-08-06T06:43:37;1.58;;;0.95;;
32788;SDS011;19141;48.980;8.410;2023-08-06T06:46:04;3.08;;;1.10;;
32788;SDS011;19141;48.980;8.410;2023-08-06T06:48:32;2.40;;;1.10;;
32788;SDS011;19141;48.980;8.410;2023-08-06T06:50:58;3.88;;;1.52;;
32788;SDS011;19141;48.980;8.410;2023-08-06T06:53:24;2.88;;;1.35;;
32788;SDS011;19141;48.980;8.410;2023-08-06T06:55:53;2.25;;;0.90;;
32788;SDS011;19141;48.980;8.410;2023-08-06T06:58:21;1.88;;;1.00;;
32788;SDS011;19141;48.980;8.410;2023-08-06T07:00:47;4.13;;;1.30;;
32788;SDS011;19141;48.980;8.410;2023-08-06T07:03:14;1.92;;;0.90;;
32788;SDS011;19141;48.980;8.410;2023-08-06T07:05:44;1.92;;;1.00;;
32788;SDS011;19141;48.980;8.410;2023-08-06T07:08:10;8.10;;;3.13;;
32788;SDS011;19141;48.980;8.410;2023-08-06T07:10:35;8.10;;;3.60;;
32788;SDS011;19141;48.980;8.410;2023-08-06T07:13:00;5.43;;;2.50;;
32788;SDS011;19141;48.980;8.410;2023-08-06T07:15:26;3.72;;;1.90;;
32788;SDS011;19141;48.980;8.410;2023-08-06T07:17:51;2.97;;;1.45;;
32788;SDS011;19141;48.980;8.410;2023-08-06T07:20:16;6.72;;;2.70;;
32788;SDS011;19141;48.980;8.410;2023-08-06T07:22:43;1.88;;;1.05;;
32788;SDS011;19141;48.980;8.410;2023-08-06T07:25:09;4.13;;;1.00;;
32788;SDS011;19141;48.980;8.410;2023-08-06T07:27:34;4.15;;;1.15;;
32788;SDS011;19141;48.980;8.410;2023-08-06T07:30:00;1.85;;;1.13;;
32788;SDS011;19141;48.980;8.410;2023-08-06T07:32:25;2.95;;;1.05;;
32788;SDS011;19141;48.980;8.410;2023-08-06T07:34:51;4.13;;;0.90;;
32788;SDS011;19141;48.980;8.410;2023-08-06T07:37:21;3.10;;;1.05;;
32788;SDS011;19141;48.980;8.410;2023-08-06T07:39:47;5.13;;;2.03;;
32788;SDS011;19141;48.980;8.410;2023-08-06T07:42:13;3.75;;;1.40;;
32788;SDS011;19141;48.980;8.410;2023-08-06T07:44:38;2.40;;;1.02;;
32788;SDS011;19141;48.980;8.410;2023-08-06T07:47:04;3.22;;;1.30;;
32788;SDS011;19141;48.980;8.410;2023-08-06T07:49:29;2.13;;;0.70;;
32788;SDS011;19141;48.980;8.410;2023-08-06T07:51:55;3.22;;;1.13;;
32788;SDS011;19141;48.980;8.410;2023-08-06T07:54:20;2.85;;;0.90;;
32788;SDS011;19141;48.980;8.410;2023-08-06T07:56:45;2.55;;;0.93;;
32788;SDS011;19141;48.980;8.410;2023-08-06T07:59:11;3.85;;;0.88;;
32788;SDS011;19141;48.980;8.410;2023-08-06T08:01:36;1.08;;;0.77;;
32788;SDS011;19141;48.980;8.410;2023-08-06T08:04:02;3.05;;;1.00;;
32788;SDS011;19141;48.980;8.410;2023-08-06T08:06:27;5.53;;;1.00;;
32788;SDS011;19141;48.980;8.410;2023-08-06T08:08:52;4.88;;;1.55;;
32788;SDS011;19141;48.980;8.410;2023-08-06T08:11:18;3.10;;;0.88;;
32788;SDS011;19141;48.980;8.410;2023-08-06T08:13:45;3.85;;;1.00;;
32788;SDS011;19141;48.980;8.410;2023-08-06T08:16:11;2.22;;;0.90;;
32788;SDS011;19141;48.980;8.410;2023-08-06T08:18:36;5.20;;;1.42;;
32788;SDS011;19141;48.980;8.410;2023-08-06T08:21:02;1.55;;;0.82;;
32788;SDS011;19141;48.980;8.410;2023-08-06T08:23:27;3.53;;;1.17;;
32788;SDS011;19141;48.980;8.410;2023-08-06T08:25:52;4.22;;;1.48;;
32788;SDS011;19141;48.980;8.410;2023-08-06T08:28:18;3.92;;;1.92;;
32788;SDS011;19141;48.980;8.410;2023-08-06T08:30:44;4.00;;;1.25;;
32788;SDS011;19141;48.980;8.410;2023-08-06T08:33:09;2.75;;;1.33;;
32788;SDS011;19141;48.980;8.410;2023-08-06T08:35:35;4.00;;;1.10;;
32788;SDS011;19141;48.980;8.410;2023-08-06T08:38:02;1.35;;;0.98;;
32788;SDS011;19141;48.980;8.410;2023-08-06T08:40:28;3.40;;;1.10;;
32788;SDS011;19141;48.980;8.410;2023-08-06T08:42:58;4.90;;;1.30;;
32788;SDS011;19141;48.980;8.410;2023-08-06T08:45:24;5.28;;;1.65;;
32788;SDS011;19141;48.980;8.410;2023-08-06T08:47:51;3.42;;;1.20;;
32788;SDS011;19141;48.980;8.410;2023-08-06T08:50:17;5.35;;;1.30;;
32788;SDS011;19141;48.980;8.410;2023-08-06T08:52:44;4.22;;;1.40;;
32788;SDS011;19141;48.980;8.410;2023-08-06T08:55:11;1.75;;;1.10;;
32788;SDS011;19141;48.980;8.410;2023-08-06T08:57:39;6.40;;;2.05;;
32788;SDS011;19141;48.980;8.410;2023-08-06T09:00:04;2.03;;;1.00;;
32788;SDS011;19141;48.980;8.410;2023-08-06T09:02:31;2.28;;;1.10;;
32788;SDS011;19141;48.980;8.410;2023-08-06T09:04:59;2.13;;;0.80;;
32788;SDS011;19141;48.980;8.410;2023-08-06T09:07:27;3.55;;;1.15;;
32788;SDS011;19141;48.980;8.410;2023-08-06T09:09:56;3.55;;;1.00;;
32788;SDS011;19141;48.980;8.410;2023-08-06T09:12:24;2.67;;;1.30;;
32788;SDS011;19141;48.980;8.410;2023-08-06T09:14:50;2.40;;;1.42;;
32788;SDS011;19141;48.980;8.410;2023-08-06T09:17:16;1.35;;;0.77;;
32788;SDS011;19141;48.980;8.410;2023-08-06T09:19:45;4.68;;;1.40;;
32788;SDS011;19141;48.980;8.410;2023-08-06T09:22:13;2.80;;;1.10;;
32788;SDS011;19141;48.980;8.410;2023-08-06T09:24:42;2.20;;;1.10;;
32788;SDS011;19141;48.980;8.410;2023-08-06T09:27:11;2.92;;;0.82;;
32788;SDS011;19141;48.980;8.410;2023-08-06T09:29:45;1.83;;;1.00;;
32788;SDS011;19141;48.980;8.410;2023-08-06T09:32:11;3.08;;;0.85;;
32788;SDS011;19141;48.980;8.410;2023-08-06T09:34:41;1.67;;;0.80;;
32788;SDS011;19141;48.980;8.410;2023-08-06T09:37:11;3.13;;;0.75;;
32788;SDS011;19141;48.980;8.410;2023-08-06T09:39:37;2.03;;;0.85;;
32788;SDS011;19141;48.980;8.410;2023-08-06T09:42:03;2.53;;;1.27;;
32788;SDS011;19141;48.980;8.410;2023-08-06T09:44:30;3.15;;;1.40;;
32788;SDS011;19141;48.980;8.410;2023-08-06T09:46:57;2.47;;;0.70;;
32788;SDS011;19141;48.980;8.410;2023-08-06T09:51:59;1.45;;;0.60;;
32788;SDS011;19141;48.980;8.410;2023-08-06T09:54:26;0.88;;;0.45;;
32788;SDS011;19141;48.980;8.410;2023-08-06T09:56:56;1.40;;;0.65;;
32788;SDS011;19141;48.980;8.410;2023-08-06T09:59:25;1.85;;;0.80;;
32788;SDS011;19141;48.980;8.410;2023-08-06T10:01:51;1.08;;;0.60;;
32788;SDS011;19141;48.980;8.410;2023-08-06T10:04:19;1.88;;;0.50;;
32788;SDS011;19141;48.980;8.410;2023-08-06T10:06:48;1.52;;;0.70;;
32788;SDS011;19141;48.980;8.410;2023-08-06T10:09:14;1.48;;;0.60;;
32788;SDS011;19141;48.980;8.410;2023-08-06T10:11:39;0.88;;;0.60;;
32788;SDS011;19141;48.980;8.410;2023-08-06T10:17:00;1.20;;;0.75;;
32788;SDS011;19141;48.980;8.410;2023-08-06T10:19:26;1.73;;;0.80;;
32788;SDS011;19141;48.980;8.410;2023-08-06T10:22:12;1.25;;;0.70;;
32788;SDS011;19141;48.980;8.410;2023-08-06T10:24:54;1.05;;;0.70;;
32788;SDS011;19141;48.980;8.410;2023-08-06T10:29:55;1.52;;;1.10;;
32788;SDS011;19141;48.980;8.410;2023-08-06T10:32:20;2.58;;;1.58;;
32788;SDS011;19141;48.980;8.410;2023-08-06T10:35:05;1.92;;;1.05;;
32788;SDS011;19141;48.980;8.410;2023-08-06T10:37:37;2.22;;;1.20;;
32788;SDS011;19141;48.980;8.410;2023-08-06T10:40:02;2.97;;;1.20;;
32788;SDS011;19141;48.980;8.410;2023-08-06T10:42:31;4.30;;;1.58;;
32788;SDS011;19141;48.980;8.410;2023-08-06T10:45:12;3.40;;;1.30;;
32788;SDS011;19141;48.980;8.410;2023-08-06T10:47:40;2.85;;;1.50;;
32788;SDS011;19141;48.980;8.410;2023-08-06T10:50:15;2.70;;;1.33;;
32788;SDS011;19141;48.980;8.410;2023-08-06T10:52:45;3.55;;;1.50;;
32788;SDS011;19141;48.980;8.410;2023-08-06T10:55:22;2.28;;;1.75;;
32788;SDS011;19141;48.980;8.410;2023-08-06T10:57:49;4.18;;;1.60;;
32788;SDS011;19141;48.980;8.410;2023-08-06T11:00:14;5.55;;;1.67;;
32788;SDS011;19141;48.980;8.410;2023-08-06T11:02:40;2.75;;;1.60;;
32788;SDS011;19141;48.980;8.410;2023-08-06T11:05:06;3.38;;;1.88;;
32788;SDS011;19141;48.980;8.410;2023-08-06T11:07:35;3.75;;;1.90;;
32788;SDS011;19141;48.980;8.410;2023-08-06T11:10:05;4.13;;;2.00;;
32788;SDS011;19141;48.980;8.410;2023-08-06T11:12:32;4.45;;;1.80;;
32788;SDS011;19141;48.980;8.410;2023-08-06T11:14:58;4.05;;;2.17;;
32788;SDS011;19141;48.980;8.410;2023-08-06T11:17:24;3.88;;;2.10;;
32788;SDS011;19141;48.980;8.410;2023-08-06T11:19:51;6.75;;;2.00;;
32788;SDS011;19141;48.980;8.410;2023-08-06T11:22:17;6.13;;;2.10;;
32788;SDS011;19141;48.980;8.410;2023-08-06T11:24:43;4.35;;;2.00;;
32788;SDS011;19141;48.980;8.410;2023-08-06T11:27:12;3.70;;;1.85;;
32788;SDS011;19141;48.980;8.410;2023-08-06T11:29:39;4.30;;;2.22;;
32788;SDS011;19141;48.980;8.410;2023-08-06T11:32:05;3.67;;;2.10;;
32788;SDS011;19141;48.980;8.410;2023-08-06T11:34:31;5.07;;;2.55;;
32788;SDS011;19141;48.980;8.410;2023-08-06T11:36:57;4.72;;;1.98;;
32788;SDS011;19141;48.980;8.410;2023-08-06T11:39:22;8.63;;;2.55;;
32788;SDS011;19141;48.980;8.410;2023-08-06T11:41:48;9.45;;;2.78;;
32788;SDS011;19141;48.980;8.410;2023-08-06T11:44:14;6.30;;;2.40;;
32788;SDS011;19141;48.980;8.410;2023-08-06T11:46:57;6.25;;;2.45;;
32788;SDS011;19141;48.980;8.410;2023-08-06T11:52:18;7.13;;;2.35;;
32788;SDS011;19141;48.980;8.410;2023-08-06T11:55:04;4.82;;;2.22;;
32788;SDS011;19141;48.980;8.410;2023-08-06T12:02:41;5.05;;;3.30;;
32788;SDS011;19141;48.980;8.410;2023-08-06T12:05:11;3.50;;;2.13;;
32788;SDS011;19141;48.980;8.410;2023-08-06T12:07:38;10.55;;;2.63;;
32788;SDS011;19141;48.980;8.410;2023-08-06T12:10:05;4.38;;;2.10;;
32788;SDS011;19141;48.980;8.410;2023-08-06T12:12:31;6.57;;;2.40;;
32788;SDS011;19141;48.980;8.410;2023-08-06T12:14:56;4.97;;;2.13;;
32788;SDS011;19141;48.980;8.410;2023-08-06T12:17:22;4.15;;;2.17;;
32788;SDS011;19141;48.980;8.410;2023-08-06T12:19:49;4.10;;;2.13;;
32788;SDS011;19141;48.980;8.410;2023-08-06T12:22:14;7.07;;;2.17;;
32788;SDS011;19141;48.980;8.410;2023-08-06T12:24:40;3.47;;;1.90;;
32788;SDS011;19141;48.980;8.410;2023-08-06T12:27:06;6.00;;;2.33;;
32788;SDS011;19141;48.980;8.410;2023-08-06T12:29:32;3.38;;;2.20;;
32788;SDS011;19141;48.980;8.410;2023-08-06T12:31:57;3.80;;;1.95;;
32788;SDS011;19141;48.980;8.410;2023-08-06T12:34:23;4.35;;;1.90;;
32788;SDS011;19141;48.980;8.410;2023-08-06T12:36:48;4.68;;;1.95;;
32788;SDS011;19141;48.980;8.410;2023-08-06T12:39:13;4.55;;;2.10;;
32788;SDS011;19141;48.980;8.410;2023-08-06T12:41:39;7.68;;;2.33;;
32788;SDS011;19141;48.980;8.410;2023-08-06T12:44:04;9.93;;;3.35;;
32788;SDS011;19141;48.980;8.410;2023-08-06T12:46:30;5.20;;;2.10;;
32788;SDS011;19141;48.980;8.410;2023-08-06T12:48:56;5.95;;;1.95;;
32788;SDS011;19141;48.980;8.410;2023-08-06T12:51:22;4.22;;;2.25;;
32788;SDS011;19141;48.980;8.410;2023-08-06T12:53:48;6.32;;;2.25;;
32788;SDS011;19141;48.980;8.410;2023-08-06T12:56:14;4.95;;;1.70;;
32788;SDS011;19141;48.980;8.410;2023-08-06T12:58:39;2.67;;;1.60;;
32788;SDS011;19141;48.980;8.410;2023-08-06T13:01:05;6.28;;;1.70;;
32788;SDS011;19141;48.980;8.410;2023-08-06T13:03:30;2.85;;;1.45;;
32788;SDS011;19141;48.980;8.410;2023-08-06T13:05:56;3.05;;;1.23;;
32788;SDS011;19141;48.980;8.410;2023-08-06T13:08:22;3.45;;;1.52;;
32788;SDS011;19141;48.980;8.410;2023-08-06T13:10:48;2.65;;;1.13;;
32788;SDS011;19141;48.980;8.410;2023-08-06T13:13:13;8.00;;;1.50;;
32788;SDS011;19141;48.980;8.410;2023-08-06T13:15:39;2.72;;;1.35;;
32788;SDS011;19141;48.980;8.410;2023-08-06T13:18:04;4.28;;;1.58;;
32788;SDS011;19141;48.980;8.410;2023-08-06T13:20:30;3.35;;;1.33;;
32788;SDS011;19141;48.980;8.410;2023-08-06T13:22:58;2.47;;;1.38;;
32788;SDS011;19141;48.980;8.410;2023-08-06T13:25:26;2.80;;;1.35;;
32788;SDS011;19141;48.980;8.410;2023-08-06T13:27:52;4.93;;;1.40;;
32788;SDS011;19141;48.980;8.410;2023-08-06T13:30:17;10.38;;;3.05;;
32788;SDS011;19141;48.980;8.410;2023-08-06T13:32:43;1.65;;;1.17;;
32788;SDS011;19141;48.980;8.410;2023-08-06T13:35:09;2.17;;;1.20;;
32788;SDS011;19141;48.980;8.410;2023-08-06T13:37:34;4.40;;;1.80;;
32788;SDS011;19141;48.980;8.410;2023-08-06T13:40:00;3.00;;;1.77;;
32788;SDS011;19141;48.980;8.410;2023-08-06T13:42:25;6.47;;;1.60;;
32788;SDS011;19141;48.980;8.410;2023-08-06T13:44:51;4.95;;;1.50;;
32788;SDS011;19141;48.980;8.410;2023-08-06T13:47:16;7.85;;;1.45;;
32788;SDS011;19141;48.980;8.410;2023-08-06T13:49:41;4.85;;;1.58;;
32788;SDS011;19141;48.980;8.410;2023-08-06T13:52:07;2.95;;;1.50;;
32788;SDS011;19141;48.980;8.410;2023-08-06T13:54:32;2.45;;;1.73;;
32788;SDS011;19141;48.980;8.410;2023-08-06T13:56:58;4.57;;;1.33;;
32788;SDS011;19141;48.980;8.410;2023-08-06T13:59:23;2.40;;;1.33;;
32788;SDS011;19141;48.980;8.410;2023-08-06T14:01:49;3.63;;;1.30;;
32788;SDS011;19141;48.980;8.410;2023-08-06T14:04:15;3.13;;;1.25;;
32788;SDS011;19141;48.980;8.410;2023-08-06T14:06:41;3.10;;;1.35;;
32788;SDS011;19141;48.980;8.410;2023-08-06T14:09:06;2.20;;;1.30;;
32788;SDS011;19141;48.980;8.410;2023-08-06T14:11:32;2.15;;;1.10;;
32788;SDS011;19141;48.980;8.410;2023-08-06T14:13:58;3.63;;;1.20;;
32788;SDS011;19141;48.980;8.410;2023-08-06T14:16:25;3.00;;;1.27;;
32788;SDS011;19141;48.980;8.410;2023-08-06T14:18:50;2.97;;;1.40;;
32788;SDS011;19141;48.980;8.410;2023-08-06T14:21:15;2.88;;;1.30;;
32788;SDS011;19141;48.980;8.410;2023-08-06T14:23:41;3.97;;;1.10;;
32788;SDS011;19141;48.980;8.410;2023-08-06T14:26:07;1.45;;;0.98;;
32788;SDS011;19141;48.980;8.410;2023-08-06T14:28:32;2.35;;;0.85;;
32788;SDS011;19141;48.980;8.410;2023-08-06T14:30:58;4.43;;;1.17;;
32788;SDS011;19141;48.980;8.410;2023-08-06T14:33:23;1.27;;;1.00;;
32788;SDS011;19141;48.980;8.410;2023-08-06T14:35:49;2.85;;;1.30;;
32788;SDS011;19141;48.980;8.410;2023-08-06T14:38:14;3.25;;;1.85;;
32788;SDS011;19141;48.980;8.410;2023-08-06T14:40:39;2.30;;;1.25;;
32788;SDS011;19141;48.980;8.410;2023-08-06T14:43:05;1.65;;;1.08;;
32788;SDS011;19141;48.980;8.410;2023-08-06T14:45:31;1.85;;;1.35;;
32788;SDS011;19141;48.980;8.410;2023-08-06T14:47:56;2.75;;;1.20;;
32788;SDS011;19141;48.980;8.410;2023-08-06T14:50:22;4.18;;;1.23;;
32788;SDS011;19141;48.980;8.410;2023-08-06T14:52:48;3.33;;;1.30;;
32788;SDS011;19141;48.980;8.410;2023-08-06T14:55:25;4.57;;;1.60;;
32788;SDS011;19141;48.980;8.410;2023-08-06T14:57:52;1.75;;;1.10;;
32788;SDS011;19141;48.980;8.410;2023-08-06T15:00:18;2.38;;;1.30;;
32788;SDS011;19141;48.980;8.410;2023-08-06T15:02:44;3.40;;;1.30;;
32788;SDS011;19141;48.980;8.410;2023-08-06T15:05:10;4.72;;;1.38;;
32788;SDS011;19141;48.980;8.410;2023-08-06T15:07:35;4.57;;;1.27;;
32788;SDS011;19141;48.980;8.410;2023-08-06T15:10:02;2.03;;;1.10;;
32788;SDS011;19141;48.980;8.410;2023-08-06T15:12:27;3.72;;;1.30;;
32788;SDS011;19141;48.980;8.410;2023-08-06T15:14:53;1.38;;;1.02;;
32788;SDS011;19141;48.980;8.410;2023-08-06T15:17:21;2.90;;;1.20;;
32788;SDS011;19141;48.980;8.410;2023-08-06T15:19:47;3.28;;;1.58;;
32788;SDS011;19141;48.980;8.410;2023-08-06T15:22:13;3.35;;;1.27;;
32788;SDS011;19141;48.980;8.410;2023-08-06T15:24:38;1.80;;;1.17;;
32788;SDS011;19141;48.980;8.410;2023-08-06T15:27:10;1.75;;;1.10;;
32788;SDS011;19141;48.980;8.410;2023-08-06T15:29:37;1.35;;;1.02;;
32788;SDS011;19141;48.980;8.410;2023-08-06T15:32:02;2.03;;;1.20;;
32788;SDS011;19141;48.980;8.410;2023-08-06T15:34:28;2.75;;;1.90;;
32788;SDS011;19141;48.980;8.410;2023-08-06T15:36:53;2.33;;;1.20;;
32788;SDS011;19141;48.980;8.410;2023-08-06T15:39:19;1.98;;;1.13;;
32788;SDS011;19141;48.980;8.410;2023-08-06T15:41:45;5.38;;;1.23;;
32788;SDS011;19141;48.980;8.410;2023-08-06T15:44:11;12.98;;;1.40;;
32788;SDS011;19141;48.980;8.410;2023-08-06T15:46:36;3.28;;;2.05;;
32788;SDS011;19141;48.980;8.410;2023-08-06T15:49:02;1.85;;;1.25;;
32788;SDS011;19141;48.980;8.410;2023-08-06T15:51:28;2.78;;;1.20;;
32788;SDS011;19141;48.980;8.410;2023-08-06T15:53:53;2.20;;;1.00;;
32788;SDS011;19141;48.980;8.410;2023-08-06T15:56:18;2.70;;;1.25;;
32788;SDS011;19141;48.980;8.410;2023-08-06T15:58:44;3.65;;;1.40;;
32788;SDS011;19141;48.980;8.410;2023-08-06T16:01:09;2.95;;;1.52;;
32788;SDS011;19141;48.980;8.410;2023-08-06T16:03:35;3.92;;;1.60;;
32788;SDS011;19141;48.980;8.410;2023-08-06T16:06:00;2.60;;;1.50;;
32788;SDS011;19141;48.980;8.410;2023-08-06T16:08:26;3.28;;;1.45;;
32788;SDS011;19141;48.980;8.410;2023-08-06T16:10:52;2.15;;;1.33;;
32788;SDS011;19141;48.980;8.410;2023-08-06T16:13:17;2.78;;;1.38;;
32788;SDS011;19141;48.980;8.410;2023-08-06T16:15:43;4.20;;;1.48;;
32788;SDS011;19141;48.980;8.410;2023-08-06T16:18:08;4.80;;;1.73;;
32788;SDS011;19141;48.980;8.410;2023-08-06T16:20:33;2.55;;;1.40;;
32788;SDS011;19141;48.980;8.410;2023-08-06T16:22:59;2.80;;;1.65;;
32788;SDS011;19141;48.980;8.410;2023-08-06T16:25:24;4.30;;;2.17;;
32788;SDS011;19141;48.980;8.410;2023-08-06T16:27:49;3.72;;;1.38;;
32788;SDS011;19141;48.980;8.410;2023-08-06T16:30:15;11.18;;;2.00;;
32788;SDS011;19141;48.980;8.410;2023-08-06T16:32:42;6.18;;;1.98;;
32788;SDS011;19141;48.980;8.410;2023-08-06T16:35:08;5.28;;;2.17;;
32788;SDS011;19141;48.980;8.410;2023-08-06T16:37:37;4.67;;;2.40;;
32788;SDS011;19141;48.980;8.410;2023-08-06T16:40:04;5.45;;;2.50;;
32788;SDS011;19141;48.980;8.410;2023-08-06T16:42:30;4.68;;;2.38;;
32788;SDS011;19141;48.980;8.410;2023-08-06T16:44:55;3.97;;;2.50;;
32788;SDS011;19141;48.980;8.410;2023-08-06T16:47:21;3.05;;;2.13;;
32788;SDS011;19141;48.980;8.410;2023-08-06T16:49:46;3.15;;;2.33;;
32788;SDS011;19141;48.980;8.410;2023-08-06T16:52:11;4.57;;;2.40;;
32788;SDS011;19141;48.980;8.410;2023-08-06T16:54:37;4.32;;;2.35;;
32788;SDS011;19141;48.980;8.410;2023-08-06T16:57:02;4.63;;;2.22;;
32788;SDS011;19141;48.980;8.410;2023-08-06T16:59:28;4.43;;;2.33;;
32788;SDS011;19141;48.980;8.410;2023-08-06T17:01:53;5.43;;;2.50;;
32788;SDS011;19141;48.980;8.410;2023-08-06T17:04:19;5.97;;;2.78;;
32788;SDS011;19141;48.980;8.410;2023-08-06T17:06:44;4.82;;;2.45;;
32788;SDS011;19141;48.980;8.410;2023-08-06T17:09:09;3.63;;;2.05;;
32788;SDS011;19141;48.980;8.410;2023-08-06T17:11:37;4.22;;;2.83;;
32788;SDS011;19141;48.980;8.410;2023-08-06T17:14:02;3.90;;;2.05;;
32788;SDS011;19141;48.980;8.410;2023-08-06T17:16:28;3.13;;;2.03;;
32788;SDS011;19141;48.980;8.410;2023-08-06T17:18:54;4.97;;;2.47;;
32788;SDS011;19141;48.980;8.410;2023-08-06T17:21:20;4.18;;;1.88;;
32788;SDS011;19141;48.980;8.410;2023-08-06T17:23:45;6.10;;;2.33;;
32788;SDS011;19141;48.980;8.410;2023-08-06T17:26:11;6.75;;;2.50;;
32788;SDS011;19141;48.980;8.410;2023-08-06T17:28:36;4.88;;;2.25;;
32788;SDS011;19141;48.980;8.410;2023-08-06T17:31:01;5.35;;;2.08;;
32788;SDS011;19141;48.980;8.410;2023-08-06T17:33:27;3.78;;;2.08;;
32788;SDS011;19141;48.980;8.410;2023-08-06T17:35:52;7.13;;;2.22;;
32788;SDS011;19141;48.980;8.410;2023-08-06T17:38:18;3.90;;;2.22;;
32788;SDS011;19141;48.980;8.410;2023-08-06T17:40:43;5.65;;;1.50;;
32788;SDS011;19141;48.980;8.410;2023-08-06T17:43:09;5.35;;;2.00;;
32788;SDS011;19141;48.980;8.410;2023-08-06T17:45:36;8.55;;;2.42;;
32788;SDS011;19141;48.980;8.410;2023-08-06T17:48:02;6.18;;;2.20;;
32788;SDS011;19141;48.980;8.410;2023-08-06T17:50:27;4.53;;;2.35;;
32788;SDS011;19141;48.980;8.410;2023-08-06T17:52:53;4.30;;;1.90;;
32788;SDS011;19141;48.980;8.410;2023-08-06T17:55:19;3.88;;;2.13;;
32788;SDS011;19141;48.980;8.410;2023-08-06T17:57:44;4.30;;;1.88;;
32788;SDS011;19141;48.980;8.410;2023-08-06T18:00:10;5.35;;;1.83;;
32788;SDS011;19141;48.980;8.410;2023-08-06T18:02:40;3.92;;;1.83;;
32788;SDS011;19141;48.980;8.410;2023-08-06T18:05:06;5.22;;;1.67;;
32788;SDS011;19141;48.980;8.410;2023-08-06T18:07:32;5.28;;;2.45;;
32788;SDS011;19141;48.980;8.410;2023-08-06T18:09:57;4.50;;;1.80;;
32788;SDS011;19141;48.980;8.410;2023-08-06T18:12:22;7.22;;;2.05;;
32788;SDS011;19141;48.980;8.410;2023-08-06T18:14:48;3.38;;;1.83;;
32788;SDS011;19141;48.980;8.410;2023-08-06T18:17:13;7.20;;;2.05;;
32788;SDS011;19141;48.980;8.410;2023-08-06T18:19:39;3.78;;;1.80;;
32788;SDS011;19141;48.980;8.410;2023-08-06T18:22:04;4.65;;;2.20;;
32788;SDS011;19141;48.980;8.410;2023-08-06T18:24:30;5.78;;;1.85;;
32788;SDS011;19141;48.980;8.410;2023-08-06T18:26:55;6.72;;;2.47;;
32788;SDS011;19141;48.980;8.410;2023-08-06T18:29:21;5.35;;;1.77;;
32788;SDS011;19141;48.980;8.410;2023-08-06T18:31:46;4.90;;;2.00;;
32788;SDS011;19141;48.980;8.410;2023-08-06T18:34:12;3.25;;;1.75;;
32788;SDS011;19141;48.980;8.410;2023-08-06T18:36:37;5.35;;;1.77;;
32788;SDS011;19141;48.980;8.410;2023-08-06T18:39:02;4.28;;;2.10;;
32788;SDS011;19141;48.980;8.410;2023-08-06T18:41:28;6.32;;;2.30;;
32788;SDS011;19141;48.980;8.410;2023-08-06T18:43:53;3.80;;;2.20;;
32788;SDS011;19141;48.980;8.410;2023-08-06T18:46:18;3.53;;;1.90;;
32788;SDS011;19141;48.980;8.410;2023-08-06T18:48:44;5.55;;;1.52;;
32788;SDS011;19141;48.980;8.410;2023-08-06T18:51:10;2.53;;;1.50;;
32788;SDS011;19141;48.980;8.410;2023-08-06T18:53:35;4.60;;;1.70;;
32788;SDS011;19141;48.980;8.410;2023-08-06T18:56:01;4.20;;;1.42;;
32788;SDS011;19141;48.980;8.410;2023-08-06T18:58:26;2.70;;;1.42;;
32788;SDS011;19141;48.980;8.410;2023-08-06T19:00:55;3.75;;;1.58;;
32788;SDS011;19141;48.980;8.410;2023-08-06T19:03:22;2.50;;;1.52;;
32788;SDS011;19141;48.980;8.410;2023-08-06T19:05:47;3.97;;;1.65;;
32788;SDS011;19141;48.980;8.410;2023-08-06T19:08:13;5.22;;;1.55;;
32788;SDS011;19141;48.980;8.410;2023-08-06T19:10:39;3.60;;;1.60;;
32788;SDS011;19141;48.980;8.410;2023-08-06T19:13:08;3.40;;;1.70;;
32788;SDS011;19141;48.980;8.410;2023-08-06T19:15:35;3.35;;;1.58;;
32788;SDS011;19141;48.980;8.410;2023-08-06T19:18:01;2.53;;;1.60;;
32788;SDS011;19141;48.980;8.410;2023-08-06T19:20:27;2.60;;;1.50;;